Nearby METAR Reports

 

CWMM - Pitt Meadows, BC, Canada
Distance from station: ESE 9km
Updated: 08/14/2018 9:00pm

 Wind from ESE
Wind: ESE 4 km/h
Temperature: 22°C
Dew Point: 16°C
Humidity: 69%
2018/08/15 04:00 CWMM 150400Z AUTO 11002KT 22/16 RMK AO1 SLP101 T02160164 55004
CWWK - White Rock, BC, Canada
Distance from station: S 27km
Updated: 08/14/2018 9:00pm

 Wind from WSW
Wind: WSW 2 km/h
Temperature: 18°C
Dew Point: 17°C
Humidity: 94%
2018/08/15 04:00 CWWK 150400Z AUTO 24001KT 18/17 RMK AO1 SLP104 T01790167 56007
 
CWWA - West Vancouver, BC, Canada
Distance from station: WNW 30km
Updated: 08/14/2018 9:00pm

 Wind from calm
Wind: Calm
Temperature: 21°C
Dew Point: 15°C
Humidity: 69%
2018/08/15 04:00 CWWA 150400Z AUTO 00000KT 21/15 RMK AO1 SLP105 T02100149 55007
CYVR - Vancouver Airport , Canada
Distance from station: WSW 30km
Updated: 08/14/2018 9:00pm
Smoke, Mostly cloudy
Smoke, Mostly cloudy
 Wind from SSW
Wind: SSW 7 km/h
Temperature: 19°C
Dew Point: 18°C
Humidity: 94%
Barometer: 1009.8 hPa
Summary: Smoke
Clouds: Mostly cloudy
Visibility: 10 km
Cloud details: Mostly cloudy 7620 m
2018/08/15 04:00 CYVR 150400Z 21004KT 6SM FU BKN250 19/18 A2982 RMK FU4CS2 SLP100 DENSITY ALT 700FT
 
CYXX - Abbotsford, BC, Canada
Distance from station: SE 38km
Updated: 08/14/2018 9:00pm
Smoke, Clear
Smoke, Clear
 Wind from S
Wind: S 9 km/h
Temperature: 19°C
Dew Point: 16°C
Humidity: 83%
Barometer: 1010.2 hPa
Summary: Smoke
Clouds: Clear
Visibility: 6 km
2018/08/15 04:00 CYXX 150400Z 19005KT 4SM FU SKC 19/16 A2983 RMK FU6 SLP102 DENSITY ALT 900FT
CWVF - Sand Heads Lighthouse, BC, Canada
Distance from station: WSW 41km
Updated: 08/14/2018 9:00pm

 Wind from WNW
Wind: WNW 6 km/h
Temperature: 20°C
Dew Point: 17°C
Humidity: 83%
2018/08/15 04:00 CWVF 150400Z AUTO 30003KT 20/17 RMK AO1 T02030170
 
KBLI - Bellingham, WA, USA
Distance from station: SSE 54km
Updated: 08/14/2018 8:53pm
Haze, Smoke, Overcast
Haze, Smoke, Overcast
 Wind from S
Wind: S 6 km/h
Temperature: 18°C
Dew Point: 15°C
Humidity: 83%
Barometer: 1010.2 hPa
Summary: Haze, Smoke
Clouds: Overcast
Visibility: 5 km
Cloud details: Overcast 1463 m
2018/08/15 03:53 KBLI 150353Z 17003KT 3SM HZ FU OVC048 18/15 A2983 RMK AO2 SLP109 T01780150
CWEZ - Saturna Island, BC, Canada
Distance from station: SSW 56km
Updated: 08/14/2018 9:00pm

 
Temperature: 19°C
Dew Point: 14°C
Humidity: 73%
2018/08/15 04:00 CWEZ 150400Z AUTO 19/14 RMK AO1 SLP100 T01910144 56007
 
KORS - Orcas Island Airport, WA, USA
Distance from station: S 63km
Updated: 08/14/2018 9:35pm
Haze
Haze
 Wind from calm
Wind: Calm
Temperature: 18°C
Dew Point: 14°C
Humidity: 78%
Barometer: 1010.2 hPa
Summary: Haze
Visibility: 10 km
2018/08/15 04:35 KORS 150435Z AUTO 00000KT 6SM HZ 18/14 A2983 RMK AO2
CWSK - Squamish, BC, Canada
Distance from station: NNW 65km
Updated: 08/14/2018 9:00pm

 Wind from NE
Wind: NE 2 km/h
Temperature: 19°C
Dew Point: 15°C
Humidity: 78%
2018/08/15 04:00 CWSK 150400Z AUTO 04001KT 19/15 RMK AO1 SLP096 T01880151 55003
 
CWEL - Entrance Island, BC, Canada
Distance from station: W 73km
Updated: 08/14/2018 9:00pm

 Wind from NNW
Wind: NNW 19 km/h
Temperature: 21°C
Dew Point: 17°C
Humidity: 78%
2018/08/15 04:00 CWEL 150400Z AUTO 34010KT 21/17 RMK AO1 SLP099 T02100170 55009
CWZA - Agassiz, BC, Canada
Distance from station: E 74km
Updated: 08/14/2018 9:00pm

 Wind from calm
Wind: Calm
Temperature: 19°C
Dew Point: 16°C
Humidity: 83%
2018/08/15 04:00 CWZA 150400Z AUTO 00000KT 19/16 RMK AO1 SLP099 T01850155 55001
 
CYCD - Nanaimo Airport, BC, Canada
Distance from station: WSW 82km
Updated: 08/14/2018 9:00pm
Mostly cloudy
Mostly cloudy
 Wind from calm
Wind: Calm
Temperature: 21°C
Dew Point: 15°C
Humidity: 69%
Barometer: 1010.2 hPa
Clouds: Mostly cloudy
Visibility: 16 km
Cloud details: Mostly cloudy 3048 m
2018/08/15 04:00 CYCD 150400Z 00000KT 10SM BKN100 21/15 A2983 RMK FU2FU4 FU LAST STFD OBS/NEXT 151300Z SLP102 DENSITY ALT 1000FT
CYYJ - Victoria Airport, BC, Canada
Distance from station: SW 83km
Updated: 08/14/2018 9:00pm
Smoke, Clear
Smoke, Clear
 Wind from NNE
Wind: NNE 4 km/h
Temperature: 19°C
Dew Point: 14°C
Humidity: 73%
Barometer: 1010.2 hPa
Summary: Smoke
Clouds: Clear
Visibility: 10 km
2018/08/15 04:00 CYYJ 150400Z 02002KT 6SM FU SKC 19/14 A2983 RMK FU5 SLP104 DENSITY ALT 700FT
 
KFHR - Friday Harbor Airport, WA, USA
Distance from station: SSW 84km
Updated: 08/14/2018 8:53pm
Haze, Mostly cloudy
Haze, Mostly cloudy
 Wind from calm
Wind: Calm
Temperature: 18°C
Dew Point: 13°C
Humidity: 73%
Barometer: 1010.5 hPa
Summary: Haze
Clouds: Mostly cloudy
Visibility: 10 km
Cloud details: Mostly cloudy 1676 m
2018/08/15 03:53 KFHR 150353Z AUTO 00000KT 6SM HZ BKN055 18/13 A2984 RMK AO2 SLP105 T01830128 TSNO
KBVS - Skagit Regional Airport, WA, USA
Distance from station: SSE 92km
Updated: 08/14/2018 9:35pm
Overcast
Overcast
 Wind from calm
Wind: Calm
Temperature: 17°C
Dew Point: 15°C
Humidity: 88%
Barometer: 1010.5 hPa
Clouds: Overcast
Visibility: 11 km
Cloud details: Mostly cloudy 732 m
Mostly cloudy 914 m
Overcast 1189 m
2018/08/15 04:35 KBVS 150435Z AUTO 00000KT 7SM BKN024 BKN030 OVC039 17/15 A2984 RMK A01
 
CYHE - Hope Airport, BC, Canada
Distance from station: E 94km
Updated: 08/14/2018 9:00pm
Haze, Clear
Haze, Clear
 Wind from varies
Wind: varies 4 km/h
Temperature: 22°C
Dew Point: 16°C
Humidity: 69%
Barometer: 1009.8 hPa
Summary: Haze
Clouds: Clear
Visibility: 5 km
2018/08/15 04:00 CYHE 150400Z AUTO VRB02KT 3SM HZ CLR 22/16 A2982 RMK SLP100 DENSITY ALT 1000FT
CWKH - Malahat, BC, Canada
Distance from station: SW 95km
Updated: 08/14/2018 9:00pm

 
Temperature: 22°C
Dew Point: 12°C
Humidity: 53%
2018/08/15 04:00 CWKH 150400Z AUTO 22/12 RMK AO1 SLP102 T02230117 55007
 
CWYJ - Victoria University, BC, Canada
Distance from station: SSW 97km
Updated: 08/14/2018 9:00pm

 Wind from WSW
Wind: WSW 2 km/h
Temperature: 19°C
Dew Point: 15°C
Humidity: 78%
2018/08/15 04:00 CWYJ 150400Z AUTO 24001KT 19/15 RMK AO1 SLP105 T01860146 55006
CWAE - Whistler, BC, Canada
Distance from station: N 98km
Updated: 08/14/2018 6:00pm
NOT Current
Smoke, Overcast
Smoke, Overcast
 Wind from S
Wind: S 4 km/h
Temperature: 27°C
Dew Point: 10°C
Humidity: 34%
Barometer: 1013.2 hPa
Summary: Smoke
Clouds: Overcast
Visibility: 4 km
Cloud details: Overcast 914 m
Overcast 914 m
2018/08/15 01:00 CWAE 150100Z 18002KT 2 1/2SM FU VV030 OVC030 27/10 A2992 RMK FU8 LAST OBS/NEXT 151300UTC WND ESTD SLP124 DENSITY ALT 4000FT
 
CYHM - Hamilton Airport, Ontario, Canada
Distance from station: SSW 4266km
Updated: 08/14/2018 9:00pm
Few Clouds
Few Clouds
 Wind from W
Wind: W 11 km/h
Temperature: 19°C
Dew Point: 17°C
Humidity: 88%
Barometer: 1013.2 hPa
Clouds: Few Clouds
Visibility: 24 km
Cloud details: Few Clouds 7620 m
2018/08/15 04:00 CYHM 150400Z 26006KT 15SM FEW250 19/17 A2992 RMK CI1 SLP129 DENSITY ALT 1500FT